Himrod, New York
Current Conditions -  °F | °C
As of 2:53 AM on Friday 24 Oct 2014 (Local Time) from KPEO Reporting Station
Overcast Overcast  
Wind Chill:   Ceiling: 800
Heat Index:   Visibility: 10mi
Dew Point:   Wind: 6mph
Humidity: 90%   Direction: 340°NNW
Pressure: 29.97"   Gusts: NA
Location:  42.59°N, 76.96°W
Report Text: KPEO 240653Z AUTO 34005KT 10SM OVC008 09/08 A2997 RMK AO2 SLP150 T00940078
Loading
Personal Weather Stations






























Interactive Weather Map
Tropical Storm Tracking
New forecast layout! Learn more

10-Day Weather Forecast

Advertisements
Track Severe Weather on mobile